Time;durP1;ratioP1;P1;durP2;ratioP2;P2;SDS_P1;SDS_P2;PMS_P1;PMS_P2;Temp;Humidity;BMP_temperature;BMP_pressure;BME280_temperature;BME280_humidity;BME280_pressure;Samples;Min_cycle;Max_cycle;Signal;HPM_P1;HPM_P2
2022/02/22 00:01:20;;;;;;;13.40;3.42;;;;;;;;;;4875798;29;20085;-74
2022/02/22 00:03:46;;;;;;;20.50;3.58;;;;;;;;;;4872474;29;20049;-74
2022/02/22 00:06:12;;;;;;;13.63;2.95;;;;;;;;;;4873669;29;20452;-74
2022/02/22 00:08:38;;;;;;;14.52;3.20;;;;;;;;;;4875019;29;20436;-74
2022/02/22 00:11:04;;;;;;;14.38;2.38;;;;;;;;;;4869338;29;20112;-75
2022/02/22 00:13:30;;;;;;;14.05;2.70;;;;;;;;;;4870584;29;20065;-74
2022/02/22 00:16:00;;;;;;;12.45;1.88;;;;;;;;;;4874677;29;20396;-75
2022/02/22 00:18:27;;;;;;;9.25;1.63;;;;;;;;;;4875076;29;20056;-74
2022/02/22 00:20:53;;;;;;;8.48;1.92;;;;;;;;;;4874937;29;20375;-74
2022/02/22 00:23:20;;;;;;;8.90;1.70;;;;;;;;;;4875576;29;20076;-74
2022/02/22 00:25:47;;;;;;;10.43;1.73;;;;;;;;;;4862251;29;20124;-74
2022/02/22 00:28:13;;;;;;;11.90;1.60;;;;;;;;;;4868440;29;20040;-74
2022/02/22 00:30:39;;;;;;;12.50;1.90;;;;;;;;;;4865966;29;20040;-74
2022/02/22 00:33:05;;;;;;;11.88;2.38;;;;;;;;;;4875779;29;20116;-74
2022/02/22 00:35:31;;;;;;;10.80;2.03;;;;;;;;;;4876395;29;20037;-74
2022/02/22 00:37:57;;;;;;;15.18;2.00;;;;;;;;;;4877463;29;20072;-75
2022/02/22 00:40:23;;;;;;;11.20;1.75;;;;;;;;;;4876509;29;20051;-74
2022/02/22 00:42:49;;;;;;;10.75;1.85;;;;;;;;;;4874848;29;20061;-74
2022/02/22 00:45:15;;;;;;;9.93;1.65;;;;;;;;;;4873101;29;20084;-74
2022/02/22 00:47:41;;;;;;;8.77;1.40;;;;;;;;;;4875966;29;20428;-75
2022/02/22 00:50:08;;;;;;;8.77;1.63;;;;;;;;;;4878751;29;20041;-74
2022/02/22 00:52:34;;;;;;;11.77;2.30;;;;;;;;;;4879239;29;20033;-75
2022/02/22 00:55:00;;;;;;;10.93;2.30;;;;;;;;;;4878926;29;20041;-74
2022/02/22 00:57:26;;;;;;;10.90;1.50;;;;;;;;;;4878993;29;20060;-74
2022/02/22 00:59:52;;;;;;;7.00;1.60;;;;;;;;;;4878343;29;20387;-74
2022/02/22 01:02:18;;;;;;;8.52;1.65;;;;;;;;;;4878802;29;20037;-74
2022/02/22 01:04:44;;;;;;;15.45;1.95;;;;;;;;;;4869755;29;20045;-74
2022/02/22 01:07:16;;;;;;;7.85;1.77;;;;;;;;;;4878819;29;20033;-74
2022/02/22 01:09:45;;;;;;;8.50;2.33;;;;;;;;;;4871612;29;20041;-75
2022/02/22 01:12:12;;;;;;;8.75;1.65;;;;;;;;;;4879015;29;20136;-74
2022/02/22 01:14:38;;;;;;;6.63;1.42;;;;;;;;;;4877109;29;20037;-74
2022/02/22 01:17:04;;;;;;;7.68;1.38;;;;;;;;;;4873542;29;20049;-74
2022/02/22 01:19:31;;;;;;;7.13;1.55;;;;;;;;;;4873977;29;20120;-74
2022/02/22 01:21:57;;;;;;;9.52;2.88;;;;;;;;;;4878519;29;20046;-74
2022/02/22 01:24:23;;;;;;;8.20;1.73;;;;;;;;;;4872653;29;20041;-74
2022/02/22 01:26:49;;;;;;;7.47;1.42;;;;;;;;;;4859705;29;20475;-75
2022/02/22 01:29:15;;;;;;;5.00;1.30;;;;;;;;;;4876523;29;20072;-75
2022/02/22 01:31:41;;;;;;;7.68;1.60;;;;;;;;;;4874916;29;20033;-74
2022/02/22 01:34:07;;;;;;;14.70;3.42;;;;;;;;;;4877921;29;20045;-74
2022/02/22 01:36:33;;;;;;;17.75;3.88;;;;;;;;;;4874616;29;20036;-74
2022/02/22 01:39:00;;;;;;;8.95;1.92;;;;;;;;;;4878092;29;20048;-74
2022/02/22 01:41:29;;;;;;;9.43;1.70;;;;;;;;;;4877360;29;20036;-74
2022/02/22 01:43:55;;;;;;;6.57;1.20;;;;;;;;;;4873805;29;20041;-74
2022/02/22 01:46:21;;;;;;;11.98;2.00;;;;;;;;;;4867101;29;20040;-75
2022/02/22 01:48:47;;;;;;;11.02;1.60;;;;;;;;;;4869783;29;20041;-74
2022/02/22 01:51:13;;;;;;;14.45;4.38;;;;;;;;;;4875515;29;20041;-74
2022/02/22 01:53:39;;;;;;;11.75;2.00;;;;;;;;;;4874369;29;20694;-74
2022/02/22 01:56:07;;;;;;;8.15;1.75;;;;;;;;;;4877833;29;20049;-74
2022/02/22 01:58:34;;;;;;;9.75;3.53;;;;;;;;;;4877000;29;20040;-74
2022/02/22 02:01:00;;;;;;;10.93;2.08;;;;;;;;;;4877239;29;20029;-74
2022/02/22 02:03:26;;;;;;;9.75;1.83;;;;;;;;;;4876486;29;20052;-74
2022/02/22 02:05:52;;;;;;;10.13;1.65;;;;;;;;;;4868599;29;20037;-74
2022/02/22 02:08:19;;;;;;;9.68;1.90;;;;;;;;;;4870276;29;20588;-74
2022/02/22 02:10:45;;;;;;;5.78;1.52;;;;;;;;;;4859837;29;20042;-74
2022/02/22 02:13:12;;;;;;;6.97;1.80;;;;;;;;;;4858612;29;20120;-74
2022/02/22 02:15:38;;;;;;;5.47;0.85;;;;;;;;;;4871595;29;20025;-74
2022/02/22 02:18:04;;;;;;;3.78;0.80;;;;;;;;;;4876861;29;20064;-74
2022/02/22 02:20:30;;;;;;;8.40;1.38;;;;;;;;;;4876133;29;20775;-74
2022/02/22 02:22:56;;;;;;;5.70;1.02;;;;;;;;;;4877562;29;20115;-74
2022/02/22 02:25:23;;;;;;;8.68;1.02;;;;;;;;;;4876923;29;20041;-74
2022/02/22 02:27:49;;;;;;;7.13;1.10;;;;;;;;;;4877345;29;20108;-74
2022/02/22 02:30:15;;;;;;;6.28;1.27;;;;;;;;;;4877037;29;20076;-74
2022/02/22 02:32:42;;;;;;;8.48;1.13;;;;;;;;;;4876235;29;20044;-74
2022/02/22 02:35:08;;;;;;;3.00;0.65;;;;;;;;;;4871272;29;20037;-74
2022/02/22 02:37:38;;;;;;;5.72;0.68;;;;;;;;;;4866578;29;20044;-74
2022/02/22 02:40:05;;;;;;;5.07;0.73;;;;;;;;;;4870224;29;20047;-74
2022/02/22 02:42:31;;;;;;;5.38;0.75;;;;;;;;;;4851117;29;20500;-74
2022/02/22 02:44:57;;;;;;;3.53;0.80;;;;;;;;;;4867746;29;20068;-74
2022/02/22 02:47:23;;;;;;;9.18;1.10;;;;;;;;;;4874831;29;20041;-74
2022/02/22 02:49:49;;;;;;;6.43;1.15;;;;;;;;;;4876477;29;20040;-74
2022/02/22 02:52:15;;;;;;;4.78;1.00;;;;;;;;;;4876637;29;20444;-74
2022/02/22 02:54:41;;;;;;;5.13;1.15;;;;;;;;;;4854316;29;20618;-74
2022/02/22 02:57:08;;;;;;;6.45;1.75;;;;;;;;;;4876985;29;20481;-74
2022/02/22 02:59:34;;;;;;;6.85;1.92;;;;;;;;;;4872201;29;20487;-74
2022/02/22 03:02:00;;;;;;;5.55;1.30;;;;;;;;;;4876400;29;20040;-73
2022/02/22 03:04:26;;;;;;;7.18;1.60;;;;;;;;;;4875325;29;20109;-74
2022/02/22 03:06:52;;;;;;;7.93;2.35;;;;;;;;;;4872709;29;20044;-74
2022/02/22 03:09:18;;;;;;;7.13;2.47;;;;;;;;;;4874488;29;20495;-73
2022/02/22 03:11:47;;;;;;;8.02;2.58;;;;;;;;;;4875569;29;20036;-74
2022/02/22 03:14:13;;;;;;;7.68;1.50;;;;;;;;;;4875381;29;20384;-74
2022/02/22 03:16:39;;;;;;;4.75;1.55;;;;;;;;;;4865254;29;20040;-74
2022/02/22 03:19:05;;;;;;;5.22;2.08;;;;;;;;;;4876275;29;20527;-74
2022/02/22 03:21:31;;;;;;;5.85;2.78;;;;;;;;;;4875412;29;20498;-74
2022/02/22 03:23:59;;;;;;;9.40;2.70;;;;;;;;;;4876281;29;20041;-74
2022/02/22 03:26:25;;;;;;;6.80;1.92;;;;;;;;;;4865575;29;20043;-74
2022/02/22 03:28:51;;;;;;;7.43;1.80;;;;;;;;;;4875141;29;20041;-74
2022/02/22 03:31:17;;;;;;;9.02;2.47;;;;;;;;;;4874896;29;20051;-74
2022/02/22 03:33:44;;;;;;;7.50;2.03;;;;;;;;;;4876101;29;20047;-74
2022/02/22 03:36:10;;;;;;;5.80;1.73;;;;;;;;;;4875247;29;20081;-74
2022/02/22 03:38:36;;;;;;;6.90;1.88;;;;;;;;;;4875889;29;20045;-74
2022/02/22 03:41:02;;;;;;;7.47;1.95;;;;;;;;;;4872647;29;20033;-74
2022/02/22 03:43:28;;;;;;;8.35;1.70;;;;;;;;;;4870579;29;20040;-74
2022/02/22 03:45:54;;;;;;;7.95;2.33;;;;;;;;;;4875360;29;20036;-74
2022/02/22 03:48:20;;;;;;;7.07;2.42;;;;;;;;;;4870193;29;20049;-74
2022/02/22 03:50:46;;;;;;;9.85;2.55;;;;;;;;;;4862222;29;20029;-74
2022/02/22 03:53:13;;;;;;;8.05;2.83;;;;;;;;;;4874592;29;20574;-74
2022/02/22 03:55:39;;;;;;;18.58;7.35;;;;;;;;;;4875630;29;20029;-74
2022/02/22 03:58:05;;;;;;;10.57;4.15;;;;;;;;;;4875440;29;20120;-73
2022/02/22 04:00:31;;;;;;;8.93;3.28;;;;;;;;;;4867942;29;20065;-74
2022/02/22 04:02:59;;;;;;;7.88;2.10;;;;;;;;;;4875495;29;20388;-74
2022/02/22 04:05:25;;;;;;;11.82;2.50;;;;;;;;;;4874944;29;20041;-74
2022/02/22 04:07:51;;;;;;;9.57;2.70;;;;;;;;;;4875134;29;20044;-73
2022/02/22 04:10:17;;;;;;;12.48;2.72;;;;;;;;;;4874860;29;20041;-74
2022/02/22 04:12:43;;;;;;;7.10;1.92;;;;;;;;;;4875712;29;20029;-74
2022/02/22 04:15:10;;;;;;;9.68;2.20;;;;;;;;;;4871235;29;20052;-73
2022/02/22 04:17:37;;;;;;;9.13;1.90;;;;;;;;;;4875496;29;20491;-74
2022/02/22 04:20:04;;;;;;;8.48;1.88;;;;;;;;;;4874670;29;20037;-74
2022/02/22 04:22:31;;;;;;;6.65;1.45;;;;;;;;;;4875918;29;20057;-75
2022/02/22 04:24:57;;;;;;;8.82;1.90;;;;;;;;;;4878843;29;20431;-74
2022/02/22 04:27:23;;;;;;;7.20;1.58;;;;;;;;;;4861907;29;20037;-74
2022/02/22 04:29:49;;;;;;;8.20;2.38;;;;;;;;;;4876273;29;20045;-74
2022/02/22 04:32:15;;;;;;;6.07;2.20;;;;;;;;;;4865911;29;20044;-74
2022/02/22 04:34:41;;;;;;;7.47;1.95;;;;;;;;;;4860372;29;20033;-74
2022/02/22 04:37:13;;;;;;;8.32;2.25;;;;;;;;;;4873871;29;20033;-74
2022/02/22 04:39:39;;;;;;;7.13;1.80;;;;;;;;;;4871899;29;20040;-73
2022/02/22 04:42:05;;;;;;;9.35;2.35;;;;;;;;;;4878720;29;20029;-74
2022/02/22 04:44:31;;;;;;;8.88;3.15;;;;;;;;;;4878863;29;20049;-73
2022/02/22 04:46:57;;;;;;;10.52;2.80;;;;;;;;;;4878530;29;20558;-74
2022/02/22 04:49:23;;;;;;;9.25;2.70;;;;;;;;;;4878578;29;20121;-73
2022/02/22 04:51:49;;;;;;;10.88;3.67;;;;;;;;;;4878179;29;20543;-74
2022/02/22 04:54:15;;;;;;;8.77;3.35;;;;;;;;;;4874970;29;20041;-74
2022/02/22 04:56:41;;;;;;;21.83;8.20;;;;;;;;;;4878171;29;20083;-74
2022/02/22 04:59:07;;;;;;;16.02;5.85;;;;;;;;;;4878826;29;20037;-74
2022/02/22 05:01:33;;;;;;;10.40;5.55;;;;;;;;;;4877190;29;20072;-74
2022/02/22 05:03:59;;;;;;;12.90;5.93;;;;;;;;;;4877862;29;20049;-74
2022/02/22 05:06:25;;;;;;;10.52;3.60;;;;;;;;;;4878331;29;20037;-74
2022/02/22 05:08:51;;;;;;;11.40;3.60;;;;;;;;;;4873273;29;20523;-74
2022/02/22 05:11:17;;;;;;;9.98;3.65;;;;;;;;;;4875721;29;20037;-73
2022/02/22 05:13:43;;;;;;;12.93;3.20;;;;;;;;;;4877833;29;20044;-73
2022/02/22 05:16:09;;;;;;;11.30;2.75;;;;;;;;;;4866848;29;20062;-73
2022/02/22 05:18:35;;;;;;;10.20;4.00;;;;;;;;;;4862826;29;20516;-73
2022/02/22 05:21:01;;;;;;;9.07;4.20;;;;;;;;;;4863853;29;20035;-74
2022/02/22 05:23:30;;;;;;;13.95;4.40;;;;;;;;;;4878545;29;20036;-74
2022/02/22 05:25:57;;;;;;;68.07;36.45;;;;;;;;;;4877616;29;20140;-73
2022/02/22 05:28:23;;;;;;;21.95;9.13;;;;;;;;;;4868836;29;20045;-74
2022/02/22 05:30:49;;;;;;;13.10;6.05;;;;;;;;;;4875085;29;20038;-74
2022/02/22 05:33:16;;;;;;;11.95;4.60;;;;;;;;;;4870287;29;20077;-74
2022/02/22 05:35:44;;;;;;;19.73;8.13;;;;;;;;;;4867764;29;20034;-74
2022/02/22 05:38:10;;;;;;;18.90;7.68;;;;;;;;;;4875320;29;20112;-74
2022/02/22 05:40:36;;;;;;;14.95;10.00;;;;;;;;;;4870416;29;20105;-73
2022/02/22 05:43:02;;;;;;;29.02;16.55;;;;;;;;;;4865738;29;20060;-73
2022/02/22 05:45:28;;;;;;;29.40;15.98;;;;;;;;;;4877206;29;20104;-73
2022/02/22 05:47:54;;;;;;;35.10;20.48;;;;;;;;;;4869334;29;20073;-73
2022/02/22 05:50:20;;;;;;;37.78;20.52;;;;;;;;;;4876952;29;20068;-74
2022/02/22 05:52:46;;;;;;;22.90;11.93;;;;;;;;;;4871660;29;20066;-74
2022/02/22 05:55:12;;;;;;;22.58;9.60;;;;;;;;;;4871406;29;20041;-74
2022/02/22 05:57:38;;;;;;;16.02;6.43;;;;;;;;;;4877642;29;20090;-73
2022/02/22 06:00:06;;;;;;;20.92;6.68;;;;;;;;;;4877850;29;20029;-73
2022/02/22 06:02:32;;;;;;;13.45;5.15;;;;;;;;;;4875951;29;20085;-74
2022/02/22 06:04:58;;;;;;;10.82;4.28;;;;;;;;;;4871214;29;20049;-73
2022/02/22 06:07:24;;;;;;;13.20;6.70;;;;;;;;;;4871801;29;20097;-74
2022/02/22 06:09:50;;;;;;;16.75;7.57;;;;;;;;;;4877289;29;20425;-73
2022/02/22 06:12:16;;;;;;;11.75;4.07;;;;;;;;;;4876803;29;20044;-74
2022/02/22 06:14:42;;;;;;;11.13;3.08;;;;;;;;;;4870067;29;20048;-74
2022/02/22 06:17:08;;;;;;;9.00;3.10;;;;;;;;;;4866933;29;20053;-74
2022/02/22 06:19:34;;;;;;;12.25;3.35;;;;;;;;;;4864825;29;20037;-73
2022/02/22 06:22:00;;;;;;;10.05;3.33;;;;;;;;;;4873818;29;20034;-74
2022/02/22 06:24:26;;;;;;;20.77;8.55;;;;;;;;;;4854490;29;20073;-73
2022/02/22 06:26:52;;;;;;;16.10;6.53;;;;;;;;;;4870455;29;20553;-74
2022/02/22 06:29:18;;;;;;;12.30;6.78;;;;;;;;;;4872633;29;20033;-74
2022/02/22 06:31:45;;;;;;;11.90;5.80;;;;;;;;;;4868978;29;20065;-73
2022/02/22 06:34:10;;;;;;;12.90;6.32;;;;;;;;;;4857907;29;20038;-73
2022/02/22 06:36:36;;;;;;;15.25;5.75;;;;;;;;;;4874368;29;20034;-73
2022/02/22 06:39:03;;;;;;;21.20;6.38;;;;;;;;;;4870730;29;20109;-73
2022/02/22 06:41:29;;;;;;;17.92;8.52;;;;;;;;;;4866147;29;20135;-73
2022/02/22 06:43:55;;;;;;;16.85;7.10;;;;;;;;;;4871417;29;20044;-73
2022/02/22 06:46:21;;;;;;;19.90;6.63;;;;;;;;;;4869854;29;20089;-73
2022/02/22 06:48:47;;;;;;;11.52;3.38;;;;;;;;;;4876249;29;20036;-73
2022/02/22 06:51:13;;;;;;;17.05;6.00;;;;;;;;;;4876064;29;20109;-73
2022/02/22 06:53:39;;;;;;;16.83;5.03;;;;;;;;;;4872116;29;20467;-73
2022/02/22 06:56:05;;;;;;;15.00;4.07;;;;;;;;;;4875361;29;20068;-73
2022/02/22 06:58:31;;;;;;;10.60;2.65;;;;;;;;;;4859833;29;20033;-73
2022/02/22 07:00:58;;;;;;;16.90;5.85;;;;;;;;;;4855484;29;20033;-73
2022/02/22 07:03:25;;;;;;;19.17;6.80;;;;;;;;;;4860216;29;20037;-74
2022/02/22 07:05:51;;;;;;;19.10;7.68;;;;;;;;;;4875719;29;20036;-74
2022/02/22 07:08:17;;;;;;;13.57;4.85;;;;;;;;;;4874598;29;20439;-74
2022/02/22 07:10:43;;;;;;;16.08;2.67;;;;;;;;;;4864846;29;20029;-74
2022/02/22 07:13:10;;;;;;;11.00;3.45;;;;;;;;;;4866804;29;20037;-74
2022/02/22 07:15:36;;;;;;;11.55;4.35;;;;;;;;;;4863830;29;20495;-74
2022/02/22 07:18:06;;;;;;;9.77;2.60;;;;;;;;;;4865872;29;20049;-75
2022/02/22 07:20:33;;;;;;;10.85;3.78;;;;;;;;;;4866504;29;20033;-74
2022/02/22 07:23:00;;;;;;;14.57;6.57;;;;;;;;;;4870275;29;20072;-74
2022/02/22 07:25:26;;;;;;;17.60;7.88;;;;;;;;;;4874905;29;20029;-74
2022/02/22 07:27:53;;;;;;;21.70;8.82;;;;;;;;;;4865391;29;20053;-74
2022/02/22 07:30:20;;;;;;;14.20;7.20;;;;;;;;;;4872566;29;20037;-74
2022/02/22 07:32:47;;;;;;;14.07;7.53;;;;;;;;;;4872889;29;20048;-74
2022/02/22 07:35:13;;;;;;;26.52;14.35;;;;;;;;;;4874269;29;20041;-75
2022/02/22 07:37:40;;;;;;;33.80;19.60;;;;;;;;;;4866726;29;20167;-74
2022/02/22 07:40:07;;;;;;;19.70;9.38;;;;;;;;;;4868421;29;20399;-74
2022/02/22 07:42:33;;;;;;;11.75;4.25;;;;;;;;;;4870518;29;20033;-74
2022/02/22 07:44:59;;;;;;;15.73;4.57;;;;;;;;;;4870956;29;20055;-74
2022/02/22 07:47:25;;;;;;;11.93;3.80;;;;;;;;;;4871430;29;20034;-74
2022/02/22 07:49:51;;;;;;;13.38;4.22;;;;;;;;;;4872334;29;20048;-75
2022/02/22 07:52:17;;;;;;;12.50;3.42;;;;;;;;;;4864225;29;20085;-74
2022/02/22 07:54:43;;;;;;;11.48;3.65;;;;;;;;;;4869278;29;20041;-75
2022/02/22 07:57:09;;;;;;;14.52;5.13;;;;;;;;;;4871998;29;20096;-74
2022/02/22 07:59:35;;;;;;;17.63;7.50;;;;;;;;;;4864383;29;20041;-75
2022/02/22 08:02:01;;;;;;;14.95;6.47;;;;;;;;;;4859854;29;20647;-74
2022/02/22 08:04:27;;;;;;;17.15;6.10;;;;;;;;;;4866331;29;20045;-74
2022/02/22 08:06:55;;;;;;;17.25;10.55;;;;;;;;;;4869326;29;20561;-74
2022/02/22 08:09:21;;;;;;;25.00;15.30;;;;;;;;;;4864295;29;20049;-74
2022/02/22 08:11:48;;;;;;;16.02;8.77;;;;;;;;;;4870148;29;20433;-74
2022/02/22 08:14:14;;;;;;;13.63;7.20;;;;;;;;;;4865932;29;20383;-74
2022/02/22 08:16:40;;;;;;;16.63;6.95;;;;;;;;;;4865869;29;20487;-74
2022/02/22 08:19:07;;;;;;;15.93;6.78;;;;;;;;;;4871730;29;20056;-74
2022/02/22 08:21:33;;;;;;;14.75;8.38;;;;;;;;;;4871881;29;20026;-75
2022/02/22 08:23:59;;;;;;;21.45;11.65;;;;;;;;;;4867394;29;20041;-74
2022/02/22 08:26:25;;;;;;;18.35;7.25;;;;;;;;;;4868844;29;20056;-75
2022/02/22 08:28:51;;;;;;;13.88;4.95;;;;;;;;;;4866443;29;20038;-75
2022/02/22 08:31:17;;;;;;;13.15;4.75;;;;;;;;;;4863050;29;20041;-74
2022/02/22 08:33:43;;;;;;;9.85;4.05;;;;;;;;;;4870126;29;20045;-75
2022/02/22 08:36:15;;;;;;;12.40;3.92;;;;;;;;;;4866828;29;20029;-75
2022/02/22 08:38:42;;;;;;;12.85;4.68;;;;;;;;;;4864875;29;20036;-73
2022/02/22 08:41:08;;;;;;;13.43;4.25;;;;;;;;;;4865686;29;20108;-74
2022/02/22 08:43:34;;;;;;;10.98;3.85;;;;;;;;;;4869417;29;20042;-73
2022/02/22 08:46:01;;;;;;;12.20;2.88;;;;;;;;;;4869073;29;20124;-74
2022/02/22 08:48:28;;;;;;;8.13;2.08;;;;;;;;;;4872235;29;20226;-74
2022/02/22 08:50:54;;;;;;;6.13;1.75;;;;;;;;;;4869744;29;20097;-73
2022/02/22 08:53:20;;;;;;;8.77;2.03;;;;;;;;;;4866763;29;20048;-73
2022/02/22 08:55:46;;;;;;;6.82;1.63;;;;;;;;;;4865554;29;20037;-73
2022/02/22 08:58:14;;;;;;;5.32;1.55;;;;;;;;;;4871965;29;20085;-74
2022/02/22 09:00:40;;;;;;;4.60;1.52;;;;;;;;;;4870082;29;20116;-73
2022/02/22 09:03:06;;;;;;;8.25;2.03;;;;;;;;;;4870627;29;20047;-74
2022/02/22 09:05:34;;;;;;;9.18;1.75;;;;;;;;;;4871201;29;20387;-74
2022/02/22 09:08:00;;;;;;;7.57;1.98;;;;;;;;;;4873351;29;20077;-73
2022/02/22 09:10:27;;;;;;;32.13;7.68;;;;;;;;;;4873691;29;20123;-73
2022/02/22 09:12:53;;;;;;;13.60;4.90;;;;;;;;;;4868125;29;20029;-73
2022/02/22 09:15:20;;;;;;;15.98;4.55;;;;;;;;;;4876569;29;20452;-73
2022/02/22 09:17:46;;;;;;;11.80;4.80;;;;;;;;;;4867749;29;20064;-73
2022/02/22 09:20:13;;;;;;;9.13;3.33;;;;;;;;;;4873671;29;20047;-73
2022/02/22 09:22:39;;;;;;;10.55;2.53;;;;;;;;;;4876716;29;20036;-73
2022/02/22 09:25:06;;;;;;;6.43;1.95;;;;;;;;;;4876485;29;20096;-73
2022/02/22 09:27:33;;;;;;;8.93;2.17;;;;;;;;;;4869643;29;20132;-73
2022/02/22 09:29:59;;;;;;;9.82;3.15;;;;;;;;;;4873497;29;20792;-74
2022/02/22 09:32:25;;;;;;;6.95;2.10;;;;;;;;;;4872310;29;20112;-73
2022/02/22 09:34:52;;;;;;;7.95;2.63;;;;;;;;;;4863563;29;20041;-74
2022/02/22 09:37:18;;;;;;;9.32;2.55;;;;;;;;;;4873940;29;20055;-74
2022/02/22 09:39:44;;;;;;;5.97;1.70;;;;;;;;;;4870420;29;20618;-74
2022/02/22 09:42:10;;;;;;;7.38;2.60;;;;;;;;;;4872247;29;20062;-73
2022/02/22 09:44:37;;;;;;;10.38;3.17;;;;;;;;;;4874253;29;20048;-73
2022/02/22 09:47:04;;;;;;;11.90;3.15;;;;;;;;;;4871734;29;20483;-74
2022/02/22 09:49:30;;;;;;;8.93;2.33;;;;;;;;;;4875753;29;20071;-73
2022/02/22 09:51:56;;;;;;;8.90;3.00;;;;;;;;;;4871910;29;20558;-73
2022/02/22 09:54:22;;;;;;;6.85;2.22;;;;;;;;;;4863894;29;20484;-74
2022/02/22 09:56:49;;;;;;;7.47;1.60;;;;;;;;;;4874040;29;20040;-74
2022/02/22 09:59:15;;;;;;;6.78;1.63;;;;;;;;;;4862601;29;20069;-73
2022/02/22 10:01:45;;;;;;;8.65;2.38;;;;;;;;;;4866517;29;20033;-75
2022/02/22 10:04:11;;;;;;;12.73;3.60;;;;;;;;;;4876540;29;20068;-74
2022/02/22 10:06:38;;;;;;;11.07;2.97;;;;;;;;;;4876131;29;20049;-73
2022/02/22 10:09:04;;;;;;;8.50;2.38;;;;;;;;;;4869102;29;20048;-74
2022/02/22 10:11:33;;;;;;;9.68;2.83;;;;;;;;;;4867268;29;20106;-73
2022/02/22 10:14:01;;;;;;;22.27;4.45;;;;;;;;;;4874545;29;20433;-73
2022/02/22 10:16:27;;;;;;;8.52;2.08;;;;;;;;;;4873612;29;20040;-74
2022/02/22 10:18:55;;;;;;;7.57;1.88;;;;;;;;;;4862649;29;20056;-74
2022/02/22 10:21:22;;;;;;;39.58;4.22;;;;;;;;;;4872939;29;20044;-74
2022/02/22 10:23:48;;;;;;;13.98;2.25;;;;;;;;;;4875712;29;20044;-74
2022/02/22 10:26:25;;;;;;;8.40;1.83;;;;;;;;;;4876485;29;20120;-74
2022/02/22 10:28:51;;;;;;;10.82;2.22;;;;;;;;;;4870919;29;20041;-74
2022/02/22 10:31:17;;;;;;;6.53;1.73;;;;;;;;;;4872776;29;20475;-74
2022/02/22 10:33:46;;;;;;;11.82;2.13;;;;;;;;;;4869119;29;20085;-74
2022/02/22 10:36:19;;;;;;;9.55;2.08;;;;;;;;;;4867265;29;20037;-74
2022/02/22 10:38:45;;;;;;;7.90;2.35;;;;;;;;;;4868147;29;20029;-74
2022/02/22 10:41:16;;;;;;;13.45;2.42;;;;;;;;;;4876172;29;20032;-74
2022/02/22 10:43:52;;;;;;;28.30;3.67;;;;;;;;;;4870157;29;20033;-74
2022/02/22 10:46:23;;;;;;;17.63;1.85;;;;;;;;;;4871200;29;20085;-74
2022/02/22 10:48:49;;;;;;;8.40;1.93;;;;;;;;;;4865198;29;20052;-74
2022/02/22 10:51:16;;;;;;;4.65;1.20;;;;;;;;;;4876425;29;20274;-74
2022/02/22 10:53:46;;;;;;;6.00;1.58;;;;;;;;;;4875705;29;20041;-74
2022/02/22 10:56:13;;;;;;;8.43;1.75;;;;;;;;;;4872169;29;20036;-74
2022/02/22 10:58:40;;;;;;;10.10;3.65;;;;;;;;;;4865214;29;20120;-74
2022/02/22 11:01:10;;;;;;;8.23;1.75;;;;;;;;;;4862283;29;20077;-74
2022/02/22 11:03:54;;;;;;;7.72;2.70;;;;;;;;;;4871304;29;20041;-74
2022/02/22 11:06:21;;;;;;;8.40;1.67;;;;;;;;;;4865599;29;20809;-74
2022/02/22 11:08:48;;;;;;;7.50;1.33;;;;;;;;;;4863070;29;20070;-74
2022/02/22 11:11:16;;;;;;;6.88;1.40;;;;;;;;;;4873174;29;20048;-74
2022/02/22 11:13:42;;;;;;;5.20;1.05;;;;;;;;;;4875862;29;20754;-74
2022/02/22 11:16:17;;;;;;;9.38;2.10;;;;;;;;;;4861057;29;20033;-74
2022/02/22 11:18:50;;;;;;;4.47;1.10;;;;;;;;;;4870309;29;20507;-74
2022/02/22 11:21:17;;;;;;;8.07;1.40;;;;;;;;;;4866277;29;20041;-74
2022/02/22 11:23:43;;;;;;;7.70;1.27;;;;;;;;;;4875143;29;20451;-74
2022/02/22 11:26:20;;;;;;;7.90;1.42;;;;;;;;;;4872329;29;20059;-74
2022/02/22 11:28:51;;;;;;;6.10;1.60;;;;;;;;;;4860944;29;20060;-74
2022/02/22 11:31:22;;;;;;;7.10;1.85;;;;;;;;;;4869073;29;20132;-74
2022/02/22 11:33:49;;;;;;;12.20;5.65;;;;;;;;;;4871606;29;20148;-74
2022/02/22 11:36:35;;;;;;;14.75;4.85;;;;;;;;;;4870582;29;20033;-74
2022/02/22 11:39:02;;;;;;;6.65;1.80;;;;;;;;;;4864911;29;20048;-73
2022/02/22 11:41:29;;;;;;;7.88;1.58;;;;;;;;;;4868346;29;20036;-73
2022/02/22 11:43:56;;;;;;;5.78;1.50;;;;;;;;;;4871041;29;20041;-74
2022/02/22 11:46:34;;;;;;;8.32;1.38;;;;;;;;;;4866983;29;20037;-74
2022/02/22 11:49:04;;;;;;;8.13;1.40;;;;;;;;;;4868389;29;20041;-73
2022/02/22 11:51:39;;;;;;;5.95;1.00;;;;;;;;;;4871222;29;20037;-74
2022/02/22 11:54:10;;;;;;;5.78;1.52;;;;;;;;;;4864664;29;20125;-74
2022/02/22 11:56:36;;;;;;;7.25;1.40;;;;;;;;;;4875231;29;20037;-74
2022/02/22 11:59:13;;;;;;;6.13;1.00;;;;;;;;;;4875047;29;20040;-74
2022/02/22 12:01:44;;;;;;;6.75;1.33;;;;;;;;;;4867303;29;20132;-74
2022/02/22 12:04:18;;;;;;;5.57;1.25;;;;;;;;;;4873531;29;20033;-74
2022/02/22 12:06:45;;;;;;;4.88;0.75;;;;;;;;;;4869280;29;20158;-74
2022/02/22 12:09:10;;;;;;;5.30;0.95;;;;;;;;;;4869594;29;20114;-73
2022/02/22 12:11:36;;;;;;;6.55;1.35;;;;;;;;;;4867199;29;20029;-74
2022/02/22 12:14:09;;;;;;;4.63;1.00;;;;;;;;;;4871647;29;20052;-74
2022/02/22 12:16:40;;;;;;;4.88;1.10;;;;;;;;;;4873624;29;20124;-74
2022/02/22 12:19:08;;;;;;;5.37;1.00;;;;;;;;;;4873400;29;20045;-74
2022/02/22 12:21:34;;;;;;;8.45;1.10;;;;;;;;;;4873390;29;20148;-73
2022/02/22 12:24:01;;;;;;;6.78;1.00;;;;;;;;;;4868363;29;20067;-74
2022/02/22 12:26:27;;;;;;;6.22;1.02;;;;;;;;;;4867516;29;20042;-73
2022/02/22 12:28:54;;;;;;;5.10;0.70;;;;;;;;;;4866008;29;20046;-74
2022/02/22 12:31:31;;;;;;;6.15;1.00;;;;;;;;;;4860600;29;20037;-73
2022/02/22 12:34:00;;;;;;;4.43;0.90;;;;;;;;;;4866836;29;20421;-73
2022/02/22 12:36:27;;;;;;;5.20;1.10;;;;;;;;;;4860951;29;20033;-73
2022/02/22 12:38:56;;;;;;;7.78;1.00;;;;;;;;;;4865533;29;20033;-73
2022/02/22 12:41:22;;;;;;;5.72;0.98;;;;;;;;;;4864762;29;20033;-73
2022/02/22 12:43:50;;;;;;;8.13;1.80;;;;;;;;;;4868313;29;20526;-73
2022/02/22 12:46:17;;;;;;;5.78;0.82;;;;;;;;;;4874062;29;20052;-73
2022/02/22 12:48:44;;;;;;;6.82;0.82;;;;;;;;;;4873350;29;20037;-73
2022/02/22 12:51:19;;;;;;;8.18;1.15;;;;;;;;;;4866707;29;20372;-74
2022/02/22 12:53:55;;;;;;;5.60;0.95;;;;;;;;;;4869529;29;20050;-73
2022/02/22 12:56:35;;;;;;;5.70;0.95;;;;;;;;;;4873294;29;20037;-74
2022/02/22 12:59:01;;;;;;;4.80;0.80;;;;;;;;;;4873697;29;20142;-74
2022/02/22 13:01:32;;;;;;;8.48;1.30;;;;;;;;;;4873806;29;20064;-74
2022/02/22 13:03:59;;;;;;;8.43;1.08;;;;;;;;;;4871252;29;20037;-74
2022/02/22 13:06:26;;;;;;;2.92;0.68;;;;;;;;;;4874300;29;20029;-74
2022/02/22 13:08:52;;;;;;;4.93;0.95;;;;;;;;;;4876303;29;20033;-74
2022/02/22 13:11:18;;;;;;;5.45;1.10;;;;;;;;;;4874086;29;20899;-74
2022/02/22 13:13:44;;;;;;;6.43;0.95;;;;;;;;;;4869875;29;20041;-75
2022/02/22 13:16:10;;;;;;;5.78;0.85;;;;;;;;;;4871429;29;20093;-74
2022/02/22 13:18:36;;;;;;;7.57;1.13;;;;;;;;;;4873081;29;20058;-75
2022/02/22 13:21:12;;;;;;;9.23;1.02;;;;;;;;;;4874352;29;20033;-73
2022/02/22 13:23:38;;;;;;;7.15;1.20;;;;;;;;;;4873108;29;20040;-73
2022/02/22 13:26:04;;;;;;;6.05;1.45;;;;;;;;;;4875815;29;20041;-74
2022/02/22 13:28:35;;;;;;;6.18;1.00;;;;;;;;;;4871968;29;20033;-73
2022/02/22 13:31:12;;;;;;;6.40;1.27;;;;;;;;;;4876235;29;20113;-73
2022/02/22 13:33:38;;;;;;;5.22;1.30;;;;;;;;;;4873839;29;20065;-73
2022/02/22 13:36:11;;;;;;;9.70;1.30;;;;;;;;;;4873459;29;20041;-73
2022/02/22 13:38:37;;;;;;;6.80;1.15;;;;;;;;;;4871208;29;20041;-73
2022/02/22 13:41:07;;;;;;;6.47;1.08;;;;;;;;;;4871952;29;20028;-73
2022/02/22 13:43:34;;;;;;;7.15;1.20;;;;;;;;;;4871445;29;20043;-73
2022/02/22 13:46:00;;;;;;;9.55;1.27;;;;;;;;;;4872538;29;20051;-73
2022/02/22 13:48:29;;;;;;;7.47;1.25;;;;;;;;;;4874586;29;20068;-74
2022/02/22 13:51:04;;;;;;;5.68;1.10;;;;;;;;;;4875320;29;20061;-73
2022/02/22 13:53:30;;;;;;;5.68;1.08;;;;;;;;;;4866419;29;20555;-73
2022/02/22 13:55:59;;;;;;;6.40;1.35;;;;;;;;;;4867081;29;20460;-74
2022/02/22 13:58:27;;;;;;;7.47;1.20;;;;;;;;;;4864781;29;20045;-73
2022/02/22 14:00:57;;;;;;;6.65;0.90;;;;;;;;;;4868888;29;20032;-73
2022/02/22 14:03:24;;;;;;;6.32;1.13;;;;;;;;;;4874252;29;20115;-73
2022/02/22 14:05:50;;;;;;;7.60;1.15;;;;;;;;;;4872153;29;20032;-73
2022/02/22 14:08:16;;;;;;;9.02;1.77;;;;;;;;;;4869594;29;20040;-73
2022/02/22 14:10:45;;;;;;;9.98;1.50;;;;;;;;;;4872157;29;20025;-73
2022/02/22 14:13:11;;;;;;;8.23;0.90;;;;;;;;;;4866300;29;20048;-73
2022/02/22 14:15:37;;;;;;;5.32;1.08;;;;;;;;;;4874764;29;20033;-73
2022/02/22 14:18:05;;;;;;;7.88;1.40;;;;;;;;;;4869082;29;20068;-74
2022/02/22 14:20:32;;;;;;;9.27;1.40;;;;;;;;;;4866678;29;20033;-73
2022/02/22 14:22:59;;;;;;;5.82;1.60;;;;;;;;;;4870600;29;20037;-73
2022/02/22 14:25:28;;;;;;;5.75;1.20;;;;;;;;;;4872372;29;20041;-73
2022/02/22 14:27:54;;;;;;;6.13;1.80;;;;;;;;;;4874030;29;20850;-73
2022/02/22 14:30:20;;;;;;;5.55;1.40;;;;;;;;;;4873058;29;20040;-73
2022/02/22 14:32:47;;;;;;;4.93;0.93;;;;;;;;;;4869710;29;20085;-73
2022/02/22 14:35:13;;;;;;;10.43;1.55;;;;;;;;;;4866487;29;20037;-73
2022/02/22 14:37:39;;;;;;;4.90;0.95;;;;;;;;;;4868044;29;20025;-74